Time,TemperatureF,DewpointF,PressureIn,WindDirection,WindDirectionDegrees,WindSpeedMPH,WindSpeedGustMPH,Humidity,HourlyPrecipIn,Conditions,Clouds,dailyrainin,SoftwareType,DateUTC
2013-01-22 00:00:00,-8.8,-12.8,30.40,WNW,292,0.0,0.0,82,0.00,,---,0.00,VWS V14.00,2013-01-22 06:00:00,
2013-01-22 00:01:00,-8.7,-12.7,30.40,WNW,292,0.0,1.0,82,0.00,,---,0.00,VWS V14.00,2013-01-22 06:01:00,
2013-01-22 00:06:00,-8.6,-12.6,30.40,WNW,292,0.0,1.0,82,0.00,,---,0.00,VWS V14.00,2013-01-22 06:06:00,
2013-01-22 00:11:00,-8.5,-12.5,30.41,WNW,292,0.0,6.0,82,0.00,,---,0.00,VWS V14.00,2013-01-22 06:11:00,
2013-01-22 00:16:00,-8.3,-12.6,30.41,NW,304,4.0,6.0,81,0.00,,---,0.00,VWS V14.00,2013-01-22 06:16:00,
2013-01-22 00:21:00,-7.9,-11.9,30.41,NW,310,4.0,7.0,82,0.00,,---,0.00,VWS V14.00,2013-01-22 06:21:00,
2013-01-22 00:26:00,-7.7,-12.0,30.41,NW,314,0.0,7.0,81,0.00,,---,0.00,VWS V14.00,2013-01-22 06:26:00,
2013-01-22 00:30:00,-7.7,-12.0,30.41,NW,314,0.0,7.0,81,0.00,,---,0.00,VWS V14.00,2013-01-22 06:30:00,
2013-01-22 00:31:00,-7.6,-11.9,30.41,NW,311,1.0,7.0,81,0.00,,---,0.00,VWS V14.00,2013-01-22 06:31:00,
2013-01-22 00:36:00,-7.7,-12.2,30.41,NW,311,0.0,7.0,80,0.00,,---,0.00,VWS V14.00,2013-01-22 06:36:00,
2013-01-22 00:41:00,-7.7,-12.2,30.41,WNW,302,0.0,7.0,80,0.00,,---,0.00,VWS V14.00,2013-01-22 06:41:00,
2013-01-22 00:46:00,-7.7,-12.2,30.41,WNW,302,0.0,7.0,80,0.00,,---,0.00,VWS V14.00,2013-01-22 06:46:00,
2013-01-22 00:51:00,-7.7,-12.2,30.41,West,281,0.0,7.0,80,0.00,,---,0.00,VWS V14.00,2013-01-22 06:51:00,
2013-01-22 00:56:00,-7.8,-12.3,30.41,WNW,296,3.0,7.0,80,0.00,,---,0.00,VWS V14.00,2013-01-22 06:56:00,
2013-01-22 01:00:00,-7.8,-12.3,30.41,WNW,296,0.0,7.0,80,0.00,,---,0.00,VWS V14.00,2013-01-22 07:00:00,
2013-01-22 01:01:00,-7.8,-12.6,30.41,WNW,298,0.0,4.0,79,0.00,,---,0.00,VWS V14.00,2013-01-22 07:01:00,
2013-01-22 01:06:00,-7.9,-12.7,30.41,NW,305,3.0,6.0,79,0.00,,---,0.00,VWS V14.00,2013-01-22 07:06:00,
2013-01-22 01:11:00,-8.0,-12.8,30.42,WNW,302,0.0,6.0,79,0.00,,---,0.00,VWS V14.00,2013-01-22 07:11:00,
2013-01-22 01:16:00,-8.0,-12.8,30.42,WNW,302,0.0,6.0,79,0.00,,---,0.00,VWS V14.00,2013-01-22 07:16:00,
2013-01-22 01:21:00,-8.1,-12.9,30.42,NW,304,3.0,6.0,79,0.00,,---,0.00,VWS V14.00,2013-01-22 07:21:00,
2013-01-22 01:26:00,-8.2,-12.9,30.42,WNW,303,3.0,6.0,79,0.00,,---,0.00,VWS V14.00,2013-01-22 07:26:00,
2013-01-22 01:30:00,-8.2,-12.9,30.42,WNW,303,0.0,6.0,79,0.00,,---,0.00,VWS V14.00,2013-01-22 07:30:00,
2013-01-22 01:31:00,-8.2,-12.9,30.42,NW,316,0.0,5.0,79,0.00,,---,0.00,VWS V14.00,2013-01-22 07:31:00,
2013-01-22 01:36:00,-8.3,-13.1,30.42,NW,306,4.0,6.0,79,0.00,,---,0.00,VWS V14.00,2013-01-22 07:36:00,
2013-01-22 01:41:00,-8.3,-13.1,30.42,NW,309,0.0,6.0,79,0.00,,---,0.00,VWS V14.00,2013-01-22 07:41:00,
2013-01-22 01:46:00,-8.4,-13.4,30.42,NW,309,0.0,6.0,78,0.00,,---,0.00,VWS V14.00,2013-01-22 07:46:00,
2013-01-22 01:51:00,-8.5,-13.5,30.43,NW,306,0.0,6.0,78,0.00,,---,0.00,VWS V14.00,2013-01-22 07:51:00,
2013-01-22 01:56:00,-8.5,-13.5,30.43,NW,315,0.0,6.0,78,0.00,,---,0.00,VWS V14.00,2013-01-22 07:56:00,
2013-01-22 02:00:00,-8.5,-13.5,30.43,NW,315,0.0,6.0,78,0.00,,---,0.00,VWS V14.00,2013-01-22 08:00:00,
2013-01-22 02:01:00,-8.5,-13.5,30.43,NW,315,0.0,3.0,78,0.00,,---,0.00,VWS V14.00,2013-01-22 08:01:00,
2013-01-22 02:06:00,-8.5,-13.5,30.43,NW,311,0.0,3.0,78,0.00,,---,0.00,VWS V14.00,2013-01-22 08:06:00,
2013-01-22 02:11:00,-8.5,-13.5,30.43,NW,311,0.0,3.0,78,0.00,,---,0.00,VWS V14.00,2013-01-22 08:11:00,
2013-01-22 02:16:00,-8.5,-13.5,30.43,NW,321,0.0,3.0,78,0.00,,---,0.00,VWS V14.00,2013-01-22 08:16:00,
2013-01-22 02:21:00,-8.5,-13.5,30.43,NW,321,0.0,3.0,78,0.00,,---,0.00,VWS V14.00,2013-01-22 08:21:00,
2013-01-22 02:26:00,-8.6,-13.6,30.44,NW,321,0.0,3.0,78,0.00,,---,0.00,VWS V14.00,2013-01-22 08:26:00,
2013-01-22 02:30:00,-8.6,-13.6,30.43,NNW,332,1.0,3.0,78,0.00,,---,0.00,VWS V14.00,2013-01-22 08:30:00,
2013-01-22 02:31:00,-8.6,-13.6,30.44,NNW,327,0.0,1.0,78,0.00,,---,0.00,VWS V14.00,2013-01-22 08:31:00,
2013-01-22 02:36:00,-8.7,-13.7,30.44,NW,321,0.0,1.0,78,0.00,,---,0.00,VWS V14.00,2013-01-22 08:36:00,
2013-01-22 02:41:00,-8.8,-14.1,30.44,NW,312,0.0,1.0,77,0.00,,---,0.00,VWS V14.00,2013-01-22 08:41:00,
2013-01-22 02:46:00,-8.8,-13.8,30.43,NW,312,0.0,1.0,78,0.00,,---,0.00,VWS V14.00,2013-01-22 08:46:00,
2013-01-22 02:51:00,-8.8,-13.8,30.44,NW,315,0.0,1.0,78,0.00,,---,0.00,VWS V14.00,2013-01-22 08:51:00,
2013-01-22 02:56:00,-8.9,-14.1,30.44,NW,315,0.0,1.0,77,0.00,,---,0.00,VWS V14.00,2013-01-22 08:56:00,
2013-01-22 03:00:00,-8.9,-14.1,30.44,NW,315,0.0,1.0,77,0.00,,---,0.00,VWS V14.00,2013-01-22 09:00:00,
2013-01-22 03:01:00,-9.0,-14.2,30.44,NW,315,0.0,0.0,77,0.00,,---,0.00,VWS V14.00,2013-01-22 09:01:00,
2013-01-22 03:06:00,-9.1,-14.3,30.44,NW,315,0.0,0.0,77,0.00,,---,0.00,VWS V14.00,2013-01-22 09:06:00,
2013-01-22 03:11:00,-9.1,-14.1,30.44,NW,315,0.0,0.0,78,0.00,,---,0.00,VWS V14.00,2013-01-22 09:11:00,
2013-01-22 03:16:00,-9.3,-14.5,30.44,NW,315,0.0,0.0,77,0.00,,---,0.00,VWS V14.00,2013-01-22 09:16:00,
2013-01-22 03:21:00,-9.6,-14.8,30.45,NW,315,0.0,0.0,77,0.00,,---,0.00,VWS V14.00,2013-01-22 09:21:00,
2013-01-22 03:26:00,-9.8,-15.0,30.44,NW,315,0.0,0.0,77,0.00,,---,0.00,VWS V14.00,2013-01-22 09:26:00,
2013-01-22 03:30:00,-9.8,-15.0,30.44,NW,315,0.0,0.0,77,0.00,,---,0.00,VWS V14.00,2013-01-22 09:30:00,
2013-01-22 03:31:00,-9.9,-15.1,30.44,NW,315,0.0,0.0,77,0.00,,---,0.00,VWS V14.00,2013-01-22 09:31:00,
2013-01-22 03:36:00,-10.0,-15.2,30.44,NW,315,0.0,0.0,77,0.00,,---,0.00,VWS V14.00,2013-01-22 09:36:00,
2013-01-22 03:41:00,-10.0,-15.0,30.44,NW,315,0.0,0.0,78,0.00,,---,0.00,VWS V14.00,2013-01-22 09:41:00,
2013-01-22 03:46:00,-10.1,-15.1,30.44,NW,315,0.0,0.0,78,0.00,,---,0.00,VWS V14.00,2013-01-22 09:46:00,
2013-01-22 03:51:00,-10.2,-15.2,30.44,NW,315,0.0,0.0,78,0.00,,---,0.00,VWS V14.00,2013-01-22 09:51:00,
2013-01-22 03:56:00,-10.4,-15.4,30.44,NW,315,0.0,0.0,78,0.00,,---,0.00,VWS V14.00,2013-01-22 09:56:00,
2013-01-22 04:00:00,-10.4,-15.4,30.44,NW,315,0.0,0.0,78,0.00,,---,0.00,VWS V14.00,2013-01-22 10:00:00,
2013-01-22 04:01:00,-10.5,-15.4,30.45,NW,315,0.0,0.0,78,0.00,,---,0.00,VWS V14.00,2013-01-22 10:01:00,
2013-01-22 04:06:00,-10.5,-15.2,30.44,NW,315,0.0,0.0,79,0.00,,---,0.00,VWS V14.00,2013-01-22 10:06:00,
2013-01-22 04:11:00,-10.6,-15.3,30.45,NW,315,0.0,0.0,79,0.00,,---,0.00,VWS V14.00,2013-01-22 10:11:00,
2013-01-22 04:16:00,-10.6,-15.3,30.44,NW,315,0.0,0.0,79,0.00,,---,0.00,VWS V14.00,2013-01-22 10:16:00,
2013-01-22 04:21:00,-10.8,-15.5,30.44,NW,315,0.0,0.0,79,0.00,,---,0.00,VWS V14.00,2013-01-22 10:21:00,
2013-01-22 04:26:00,-11.0,-15.9,30.44,NW,315,0.0,0.0,78,0.00,,---,0.00,VWS V14.00,2013-01-22 10:26:00,
2013-01-22 04:30:00,-11.0,-15.7,30.44,NW,315,0.0,0.0,79,0.00,,---,0.00,VWS V14.00,2013-01-22 10:30:00,
2013-01-22 04:31:00,-11.1,-15.8,30.45,NW,315,0.0,0.0,79,0.00,,---,0.00,VWS V14.00,2013-01-22 10:31:00,
2013-01-22 04:36:00,-11.3,-16.0,30.45,NW,315,0.0,0.0,79,0.00,,---,0.00,VWS V14.00,2013-01-22 10:36:00,
2013-01-22 04:41:00,-11.4,-16.1,30.45,NW,315,0.0,0.0,79,0.00,,---,0.00,VWS V14.00,2013-01-22 10:41:00,
2013-01-22 04:46:00,-11.5,-16.2,30.45,NW,315,0.0,0.0,79,0.00,,---,0.00,VWS V14.00,2013-01-22 10:46:00,
2013-01-22 04:51:00,-11.6,-16.3,30.45,NW,315,0.0,0.0,79,0.00,,---,0.00,VWS V14.00,2013-01-22 10:51:00,
2013-01-22 04:56:00,-11.7,-16.4,30.45,NW,315,0.0,0.0,79,0.00,,---,0.00,VWS V14.00,2013-01-22 10:56:00,
2013-01-22 05:00:00,-11.8,-16.5,30.45,NW,315,0.0,0.0,79,0.00,,---,0.00,VWS V14.00,2013-01-22 11:00:00,
2013-01-22 05:01:00,-12.0,-16.7,30.45,NW,315,0.0,0.0,79,0.00,,---,0.00,VWS V14.00,2013-01-22 11:01:00,
2013-01-22 05:06:00,-12.3,-17.0,30.45,NW,315,0.0,0.0,79,0.00,,---,0.00,VWS V14.00,2013-01-22 11:06:00,
2013-01-22 05:11:00,-12.6,-17.2,30.45,NW,315,0.0,0.0,79,0.00,,---,0.00,VWS V14.00,2013-01-22 11:11:00,
2013-01-22 05:16:00,-13.0,-17.9,30.45,NW,315,0.0,0.0,78,0.00,,---,0.00,VWS V14.00,2013-01-22 11:16:00,
2013-01-22 05:21:00,-13.3,-17.9,30.45,NW,315,0.0,0.0,79,0.00,,---,0.00,VWS V14.00,2013-01-22 11:21:00,
2013-01-22 05:26:00,-13.4,-18.0,30.45,NW,315,0.0,0.0,79,0.00,,---,0.00,VWS V14.00,2013-01-22 11:26:00,
2013-01-22 05:30:00,-13.4,-18.0,30.45,NW,315,0.0,0.0,79,0.00,,---,0.00,VWS V14.00,2013-01-22 11:30:00,
2013-01-22 05:31:00,-13.6,-18.2,30.45,NW,315,0.0,0.0,79,0.00,,---,0.00,VWS V14.00,2013-01-22 11:31:00,
2013-01-22 05:36:00,-13.8,-18.4,30.45,NW,315,0.0,0.0,79,0.00,,---,0.00,VWS V14.00,2013-01-22 11:36:00,
2013-01-22 05:41:00,-13.9,-18.5,30.45,NW,315,0.0,0.0,79,0.00,,---,0.00,VWS V14.00,2013-01-22 11:41:00,
2013-01-22 05:46:00,-14.1,-18.7,30.46,NW,315,0.0,0.0,79,0.00,,---,0.00,VWS V14.00,2013-01-22 11:46:00,
2013-01-22 05:51:00,-14.1,-18.5,30.45,NW,315,0.0,0.0,80,0.00,,---,0.00,VWS V14.00,2013-01-22 11:51:00,
2013-01-22 05:56:00,-14.0,-18.4,30.46,NW,315,0.0,0.0,80,0.00,,---,0.00,VWS V14.00,2013-01-22 11:56:00,
2013-01-22 06:00:00,-14.0,-18.4,30.46,NW,315,0.0,0.0,80,0.00,,---,0.00,VWS V14.00,2013-01-22 12:00:00,
2013-01-22 06:01:00,-14.1,-18.5,30.46,NW,315,0.0,0.0,80,0.00,,---,0.00,VWS V14.00,2013-01-22 12:01:00,
2013-01-22 06:06:00,-14.2,-18.6,30.46,NW,315,0.0,0.0,80,0.00,,---,0.00,VWS V14.00,2013-01-22 12:06:00,
2013-01-22 06:11:00,-14.4,-18.8,30.45,NW,315,0.0,0.0,80,0.00,,---,0.00,VWS V14.00,2013-01-22 12:11:00,
2013-01-22 06:16:00,-14.5,-18.9,30.46,NW,315,0.0,0.0,80,0.00,,---,0.00,VWS V14.00,2013-01-22 12:16:00,
2013-01-22 06:21:00,-14.6,-19.0,30.46,NW,315,0.0,0.0,80,0.00,,---,0.00,VWS V14.00,2013-01-22 12:21:00,
2013-01-22 06:26:00,-14.7,-19.1,30.46,NW,315,0.0,0.0,80,0.00,,---,0.00,VWS V14.00,2013-01-22 12:26:00,
2013-01-22 06:30:00,-14.7,-19.1,30.46,NW,315,0.0,0.0,80,0.00,,---,0.00,VWS V14.00,2013-01-22 12:30:00,
2013-01-22 06:31:00,-14.7,-19.1,30.46,NW,315,0.0,0.0,80,0.00,,---,0.00,VWS V14.00,2013-01-22 12:31:00,
2013-01-22 06:36:00,-14.7,-19.1,30.46,NW,315,0.0,0.0,80,0.00,,---,0.00,VWS V14.00,2013-01-22 12:36:00,
2013-01-22 06:41:00,-14.7,-19.1,30.46,NW,315,0.0,0.0,80,0.00,,---,0.00,VWS V14.00,2013-01-22 12:41:00,
2013-01-22 06:47:00,-14.8,-19.2,30.47,NW,315,0.0,0.0,80,0.00,,---,0.00,VWS V14.00,2013-01-22 12:47:00,
2013-01-22 06:52:00,-14.9,-19.2,30.47,NW,315,0.0,0.0,80,0.00,,---,0.00,VWS V14.00,2013-01-22 12:52:00,
2013-01-22 06:57:00,-15.0,-19.4,30.46,NW,315,0.0,0.0,80,0.00,,---,0.00,VWS V14.00,2013-01-22 12:57:00,
2013-01-22 07:00:00,-15.0,-19.4,30.46,NW,315,0.0,0.0,80,0.00,,---,0.00,VWS V14.00,2013-01-22 13:00:00,
2013-01-22 07:02:00,-15.1,-19.5,30.46,NW,315,0.0,0.0,80,0.00,,---,0.00,VWS V14.00,2013-01-22 13:02:00,
2013-01-22 07:07:00,-15.2,-19.5,30.46,NW,315,0.0,0.0,80,0.00,,---,0.00,VWS V14.00,2013-01-22 13:07:00,
2013-01-22 07:12:00,-15.4,-20.0,30.46,NW,315,0.0,0.0,79,0.00,,---,0.00,VWS V14.00,2013-01-22 13:12:00,
2013-01-22 07:17:00,-15.6,-20.2,30.46,NW,315,0.0,0.0,79,0.00,,---,0.00,VWS V14.00,2013-01-22 13:17:00,
2013-01-22 07:22:00,-15.7,-20.3,30.45,NW,315,0.0,0.0,79,0.00,,---,0.00,VWS V14.00,2013-01-22 13:22:00,
2013-01-22 07:27:00,-15.8,-20.1,30.45,NW,315,0.0,0.0,80,0.00,,---,0.00,VWS V14.00,2013-01-22 13:27:00,
2013-01-22 07:30:00,-15.8,-20.1,30.45,NW,315,0.0,0.0,80,0.00,,---,0.00,VWS V14.00,2013-01-22 13:30:00,
2013-01-22 07:32:00,-15.8,-20.1,30.44,NW,315,0.0,0.0,80,0.00,,---,0.00,VWS V14.00,2013-01-22 13:32:00,
2013-01-22 07:37:00,-15.8,-20.1,30.45,NW,315,0.0,0.0,80,0.00,,---,0.00,VWS V14.00,2013-01-22 13:37:00,
2013-01-22 07:42:00,-15.9,-20.2,30.44,NW,315,0.0,0.0,80,0.00,,---,0.00,VWS V14.00,2013-01-22 13:42:00,
2013-01-22 07:47:00,-15.8,-20.1,30.45,NW,315,0.0,0.0,80,0.00,,---,0.00,VWS V14.00,2013-01-22 13:47:00,
2013-01-22 07:52:00,-15.8,-20.1,30.45,NW,315,0.0,0.0,80,0.00,,---,0.00,VWS V14.00,2013-01-22 13:52:00,
2013-01-22 07:57:00,-15.8,-20.1,30.45,NW,315,0.0,0.0,80,0.00,,---,0.00,VWS V14.00,2013-01-22 13:57:00,
2013-01-22 08:00:00,-15.8,-20.1,30.45,NW,315,0.0,0.0,80,0.00,,---,0.00,VWS V14.00,2013-01-22 14:00:00,
2013-01-22 08:02:00,-15.8,-20.1,30.45,NW,315,0.0,0.0,80,0.00,,---,0.00,VWS V14.00,2013-01-22 14:02:00,
2013-01-22 08:07:00,-15.8,-20.1,30.45,NW,315,0.0,0.0,80,0.00,,---,0.00,VWS V14.00,2013-01-22 14:07:00,
2013-01-22 08:12:00,-15.8,-20.1,30.46,NW,315,0.0,0.0,80,0.00,,---,0.00,VWS V14.00,2013-01-22 14:12:00,
2013-01-22 08:17:00,-15.7,-20.0,30.47,NW,315,0.0,0.0,80,0.00,,---,0.00,VWS V14.00,2013-01-22 14:17:00,
2013-01-22 08:22:00,-15.4,-19.7,30.46,NW,315,0.0,0.0,80,0.00,,---,0.00,VWS V14.00,2013-01-22 14:22:00,
2013-01-22 08:27:00,-15.0,-19.1,30.46,NW,315,0.0,0.0,81,0.00,,---,0.00,VWS V14.00,2013-01-22 14:27:00,
2013-01-22 08:30:00,-15.0,-19.1,30.46,NW,315,0.0,0.0,81,0.00,,---,0.00,VWS V14.00,2013-01-22 14:30:00,
2013-01-22 08:32:00,-14.2,-18.1,30.46,NW,315,0.0,0.0,82,0.00,,---,0.00,VWS V14.00,2013-01-22 14:32:00,
2013-01-22 08:37:00,-13.7,-17.6,30.47,NW,315,0.0,0.0,82,0.00,,---,0.00,VWS V14.00,2013-01-22 14:37:00,
2013-01-22 08:42:00,-13.3,-17.5,30.47,NW,315,0.0,0.0,81,0.00,,---,0.00,VWS V14.00,2013-01-22 14:42:00,
2013-01-22 08:47:00,-12.8,-17.0,30.47,NW,315,0.0,0.0,81,0.00,,---,0.00,VWS V14.00,2013-01-22 14:47:00,
2013-01-22 08:52:00,-12.0,-15.9,30.48,NW,315,0.0,0.0,82,0.00,,---,0.00,VWS V14.00,2013-01-22 14:52:00,
2013-01-22 08:57:00,-11.2,-14.9,30.48,NW,315,0.0,0.0,83,0.00,,---,0.00,VWS V14.00,2013-01-22 14:57:00,
2013-01-22 09:00:00,-11.3,-15.0,30.48,NW,315,0.0,0.0,83,0.00,,---,0.00,VWS V14.00,2013-01-22 15:00:00,
2013-01-22 09:02:00,-10.6,-14.3,30.48,NW,315,0.0,0.0,83,0.00,,---,0.00,VWS V14.00,2013-01-22 15:02:00,
2013-01-22 09:07:00,-10.0,-14.0,30.48,NW,315,0.0,0.0,82,0.00,,---,0.00,VWS V14.00,2013-01-22 15:07:00,
2013-01-22 09:12:00,-9.7,-13.7,30.48,NW,315,0.0,0.0,82,0.00,,---,0.00,VWS V14.00,2013-01-22 15:12:00,
2013-01-22 09:17:00,-9.3,-13.3,30.48,NW,315,0.0,0.0,82,0.00,,---,0.00,VWS V14.00,2013-01-22 15:17:00,
2013-01-22 09:22:00,-9.0,-13.2,30.48,NW,315,0.0,0.0,81,0.00,,---,0.00,VWS V14.00,2013-01-22 15:22:00,
2013-01-22 09:27:00,-8.8,-13.3,30.48,NW,313,0.0,0.0,80,0.00,,---,0.00,VWS V14.00,2013-01-22 15:27:00,
2013-01-22 09:30:00,-8.8,-13.3,30.48,NW,313,0.0,0.0,80,0.00,,---,0.00,VWS V14.00,2013-01-22 15:30:00,
2013-01-22 09:32:00,-8.6,-13.3,30.48,NW,312,0.0,0.0,79,0.00,,---,0.00,VWS V14.00,2013-01-22 15:32:00,
2013-01-22 09:37:00,-8.4,-13.1,30.48,West,280,0.0,1.0,79,0.00,,---,0.00,VWS V14.00,2013-01-22 15:37:00,
2013-01-22 09:42:00,-8.2,-13.2,30.48,West,280,0.0,1.0,78,0.00,,---,0.00,VWS V14.00,2013-01-22 15:42:00,
2013-01-22 09:47:00,-8.1,-13.1,30.48,West,280,0.0,1.0,78,0.00,,---,0.00,VWS V14.00,2013-01-22 15:47:00,
2013-01-22 09:52:00,-8.0,-13.3,30.49,West,279,0.0,2.0,77,0.00,,---,0.00,VWS V14.00,2013-01-22 15:52:00,
2013-01-22 09:57:00,-7.7,-13.0,30.49,West,279,0.0,0.0,77,0.00,,---,0.00,VWS V14.00,2013-01-22 15:57:00,
2013-01-22 10:00:00,-7.8,-13.1,30.49,West,279,0.0,2.0,77,0.00,,---,0.00,VWS V14.00,2013-01-22 16:00:00,
2013-01-22 10:02:00,-7.6,-12.9,30.49,West,277,0.0,3.0,77,0.00,,---,0.00,VWS V14.00,2013-01-22 16:02:00,
2013-01-22 10:07:00,-7.5,-13.0,30.50,West,277,1.0,3.0,76,0.00,,---,0.00,VWS V14.00,2013-01-22 16:07:00,
2013-01-22 10:12:00,-7.3,-12.9,30.49,West,277,0.0,3.0,76,0.00,,---,0.00,VWS V14.00,2013-01-22 16:12:00,
2013-01-22 10:17:00,-7.2,-13.0,30.49,West,275,1.0,3.0,75,0.00,,---,0.00,VWS V14.00,2013-01-22 16:17:00,
2013-01-22 10:22:00,-6.9,-13.0,30.50,WSW,242,1.0,3.0,74,0.00,,---,0.00,VWS V14.00,2013-01-22 16:22:00,
2013-01-22 10:27:00,-6.7,-12.8,30.50,WSW,250,4.0,4.0,74,0.00,,---,0.00,VWS V14.00,2013-01-22 16:27:00,
2013-01-22 10:30:00,-6.7,-12.8,30.50,WSW,255,1.0,5.0,74,0.00,,---,0.00,VWS V14.00,2013-01-22 16:30:00,
2013-01-22 10:32:00,-6.5,-12.6,30.50,WSW,242,2.0,5.0,74,0.00,,---,0.00,VWS V14.00,2013-01-22 16:32:00,
2013-01-22 10:37:00,-6.4,-12.5,30.49,SW,232,2.0,5.0,74,0.00,,---,0.00,VWS V14.00,2013-01-22 16:37:00,
2013-01-22 10:42:00,-6.3,-12.4,30.49,WSW,245,5.0,6.0,74,0.00,,---,0.00,VWS V14.00,2013-01-22 16:42:00,
2013-01-22 10:47:00,-6.2,-12.3,30.49,West,265,0.0,6.0,74,0.00,,---,0.00,VWS V14.00,2013-01-22 16:47:00,
2013-01-22 10:52:00,-6.2,-12.3,30.49,West,276,1.0,6.0,74,0.00,,---,0.00,VWS V14.00,2013-01-22 16:52:00,
2013-01-22 10:57:00,-6.0,-12.1,30.49,WSW,242,2.0,6.0,74,0.00,,---,0.00,VWS V14.00,2013-01-22 16:57:00,
2013-01-22 11:00:00,-6.1,-12.2,30.49,WSW,245,6.0,6.0,74,0.00,,---,0.00,VWS V14.00,2013-01-22 17:00:00,
2013-01-22 11:02:00,-5.8,-11.9,30.48,West,275,0.0,6.0,74,0.00,,---,0.00,VWS V14.00,2013-01-22 17:02:00,
2013-01-22 11:07:00,-5.7,-12.1,30.48,WSW,257,4.0,6.0,73,0.00,,---,0.00,VWS V14.00,2013-01-22 17:07:00,
2013-01-22 11:12:00,-5.7,-12.1,30.48,WSW,252,1.0,6.0,73,0.00,,---,0.00,VWS V14.00,2013-01-22 17:12:00,
2013-01-22 11:17:00,-5.5,-11.6,30.48,WSW,253,4.0,7.0,74,0.00,,---,0.00,VWS V14.00,2013-01-22 17:17:00,
2013-01-22 11:22:00,-5.2,-11.3,30.48,WSW,243,1.0,7.0,74,0.00,,---,0.00,VWS V14.00,2013-01-22 17:22:00,
2013-01-22 11:27:00,-5.1,-11.2,30.48,West,274,0.0,1.0,74,0.00,,---,0.00,VWS V14.00,2013-01-22 17:27:00,
2013-01-22 11:30:00,-5.1,-11.2,30.48,WNW,284,0.0,9.0,74,0.00,,---,0.00,VWS V14.00,2013-01-22 17:30:00,
2013-01-22 11:32:00,-5.1,-11.5,30.48,WSW,244,6.0,9.0,73,0.00,,---,0.00,VWS V14.00,2013-01-22 17:32:00,
2013-01-22 11:38:00,-5.1,-11.8,30.48,SW,225,7.0,9.0,72,0.00,,---,0.00,VWS V14.00,2013-01-22 17:38:00,
2013-01-22 11:43:00,-5.0,-11.7,30.48,WSW,242,3.0,9.0,72,0.00,,---,0.00,VWS V14.00,2013-01-22 17:43:00,
2013-01-22 11:48:00,-4.9,-11.3,30.48,WSW,249,5.0,9.0,73,0.00,,---,0.00,VWS V14.00,2013-01-22 17:48:00,
2013-01-22 11:53:00,-4.8,-11.2,30.47,SW,226,6.0,9.0,73,0.00,,---,0.00,VWS V14.00,2013-01-22 17:53:00,
2013-01-22 11:58:00,-4.6,-11.0,30.47,SW,227,7.0,7.0,73,0.00,,---,0.00,VWS V14.00,2013-01-22 17:58:00,
2013-01-22 12:00:00,-4.7,-11.1,30.47,SW,229,6.0,9.0,73,0.00,,---,0.00,VWS V14.00,2013-01-22 18:00:00,
2013-01-22 12:03:00,-4.5,-10.9,30.47,WSW,252,5.0,8.0,73,0.00,,---,0.00,VWS V14.00,2013-01-22 18:03:00,
2013-01-22 12:08:00,-4.1,-10.6,30.47,WSW,250,4.0,8.0,73,0.00,,---,0.00,VWS V14.00,2013-01-22 18:08:00,
2013-01-22 12:13:00,-3.7,-10.2,30.47,WSW,242,5.0,8.0,73,0.00,,---,0.00,VWS V14.00,2013-01-22 18:13:00,
2013-01-22 12:18:00,-3.4,-10.1,30.47,SSW,213,10.0,11.0,72,0.00,,---,0.00,VWS V14.00,2013-01-22 18:18:00,
2013-01-22 12:23:00,-3.4,-10.4,30.47,West,263,0.0,11.0,71,0.00,,---,0.00,VWS V14.00,2013-01-22 18:23:00,
2013-01-22 12:28:00,-3.1,-9.9,30.46,WNW,284,1.0,2.0,72,0.00,,---,0.00,VWS V14.00,2013-01-22 18:28:00,
2013-01-22 12:30:00,-3.2,-10.0,30.46,West,270,0.0,11.0,72,0.00,,---,0.00,VWS V14.00,2013-01-22 18:30:00,
2013-01-22 12:33:00,-2.8,-9.6,30.46,West,270,4.0,7.0,72,0.00,,---,0.00,VWS V14.00,2013-01-22 18:33:00,
2013-01-22 12:38:00,-2.6,-9.7,30.46,WSW,252,2.0,7.0,71,0.00,,---,0.00,VWS V14.00,2013-01-22 18:38:00,
2013-01-22 12:43:00,-2.6,-9.9,30.46,West,266,2.0,9.0,70,0.00,,---,0.00,VWS V14.00,2013-01-22 18:43:00,
2013-01-22 12:48:00,-2.7,-9.8,30.45,SW,233,2.0,9.0,71,0.00,,---,0.00,VWS V14.00,2013-01-22 18:48:00,
2013-01-22 12:53:00,-2.7,-9.8,30.45,SW,227,5.0,9.0,71,0.00,,---,0.00,VWS V14.00,2013-01-22 18:53:00,
2013-01-22 12:58:00,-2.6,-9.7,30.44,West,263,6.0,7.0,71,0.00,,---,0.00,VWS V14.00,2013-01-22 18:58:00,
2013-01-22 13:00:00,-2.7,-9.8,30.45,SW,221,7.0,9.0,71,0.00,,---,0.00,VWS V14.00,2013-01-22 19:00:00,
2013-01-22 13:03:00,-2.6,-9.7,30.44,WSW,251,6.0,8.0,71,0.00,,---,0.00,VWS V14.00,2013-01-22 19:03:00,
2013-01-22 13:08:00,-2.7,-9.8,30.44,WSW,243,6.0,10.0,71,0.00,,---,0.00,VWS V14.00,2013-01-22 19:08:00,
2013-01-22 13:13:00,-2.7,-9.8,30.44,WSW,251,0.0,10.0,71,0.00,,---,0.00,VWS V14.00,2013-01-22 19:13:00,
2013-01-22 13:18:00,-2.5,-9.3,30.43,West,263,0.0,10.0,72,0.00,,---,0.00,VWS V14.00,2013-01-22 19:18:00,
2013-01-22 13:23:00,-2.4,-9.2,30.43,West,262,0.0,10.0,72,0.00,,---,0.00,VWS V14.00,2013-01-22 19:23:00,
2013-01-22 13:28:00,-2.2,-9.0,30.43,WSW,244,5.0,10.0,72,0.00,,---,0.00,VWS V14.00,2013-01-22 19:28:00,
2013-01-22 13:30:00,-2.2,-9.0,30.43,SSW,196,2.0,10.0,72,0.00,,---,0.00,VWS V14.00,2013-01-22 19:30:00,
2013-01-22 13:33:00,-1.8,-8.6,30.43,West,267,5.0,10.0,72,0.00,,---,0.00,VWS V14.00,2013-01-22 19:33:00,
2013-01-22 13:38:00,-1.7,-8.8,30.43,West,269,0.0,10.0,71,0.00,,---,0.00,VWS V14.00,2013-01-22 19:38:00,
2013-01-22 13:43:00,-1.6,-8.7,30.43,WSW,245,2.0,10.0,71,0.00,,---,0.00,VWS V14.00,2013-01-22 19:43:00,
2013-01-22 13:48:00,-1.6,-8.7,30.43,WSW,249,2.0,10.0,71,0.00,,---,0.00,VWS V14.00,2013-01-22 19:48:00,
2013-01-22 13:53:00,-1.6,-8.7,30.43,West,259,4.0,10.0,71,0.00,,---,0.00,VWS V14.00,2013-01-22 19:53:00,
2013-01-22 13:58:00,-1.5,-8.6,30.43,WNW,286,0.0,2.0,71,0.00,,---,0.00,VWS V14.00,2013-01-22 19:58:00,
2013-01-22 14:00:00,-1.5,-8.6,30.43,WNW,283,0.0,10.0,71,0.00,,---,0.00,VWS V14.00,2013-01-22 20:00:00,
2013-01-22 14:03:00,-1.4,-8.5,30.43,WNW,285,1.0,2.0,71,0.00,,---,0.00,VWS V14.00,2013-01-22 20:03:00,
2013-01-22 14:08:00,-1.3,-8.4,30.43,WNW,285,0.0,2.0,71,0.00,,---,0.00,VWS V14.00,2013-01-22 20:08:00,
2013-01-22 14:13:00,-1.3,-8.7,30.43,West,280,1.0,2.0,70,0.00,,---,0.00,VWS V14.00,2013-01-22 20:13:00,
2013-01-22 14:18:00,-1.3,-8.4,30.43,West,265,2.0,4.0,71,0.00,,---,0.00,VWS V14.00,2013-01-22 20:18:00,
2013-01-22 14:23:00,-1.3,-8.4,30.43,WSW,247,3.0,6.0,71,0.00,,---,0.00,VWS V14.00,2013-01-22 20:23:00,
2013-01-22 14:28:00,-1.3,-8.4,30.43,SW,224,4.0,6.0,71,0.00,,---,0.00,VWS V14.00,2013-01-22 20:28:00,
2013-01-22 14:30:00,-1.3,-8.4,30.43,WSW,240,4.0,7.0,71,0.00,,---,0.00,VWS V14.00,2013-01-22 20:30:00,
2013-01-22 14:33:00,-1.3,-8.4,30.42,SW,231,1.0,7.0,71,0.00,,---,0.00,VWS V14.00,2013-01-22 20:33:00,
2013-01-22 14:38:00,-1.3,-8.4,30.42,SW,232,0.0,7.0,71,0.00,,---,0.00,VWS V14.00,2013-01-22 20:38:00,
2013-01-22 14:43:00,-1.0,-7.8,30.42,SW,232,0.0,7.0,72,0.00,,---,0.00,VWS V14.00,2013-01-22 20:43:00,
2013-01-22 14:48:00,-0.9,-7.7,30.42,WSW,246,5.0,7.0,72,0.00,,---,0.00,VWS V14.00,2013-01-22 20:48:00,
2013-01-22 14:53:00,-0.8,-7.9,30.43,WSW,248,4.0,7.0,71,0.00,,---,0.00,VWS V14.00,2013-01-22 20:53:00,
2013-01-22 14:58:00,-0.7,-7.8,30.43,WSW,238,2.0,4.0,71,0.00,,---,0.00,VWS V14.00,2013-01-22 20:58:00,
2013-01-22 15:00:00,-0.8,-7.9,30.43,WSW,245,4.0,7.0,71,0.00,,---,0.00,VWS V14.00,2013-01-22 21:00:00,
2013-01-22 15:03:00,-0.6,-7.7,30.43,WSW,242,2.0,8.0,71,0.00,,---,0.00,VWS V14.00,2013-01-22 21:03:00,
2013-01-22 15:08:00,-0.5,-7.6,30.43,WSW,240,3.0,8.0,71,0.00,,---,0.00,VWS V14.00,2013-01-22 21:08:00,
2013-01-22 15:13:00,-0.5,-7.6,30.43,WSW,240,2.0,8.0,71,0.00,,---,0.00,VWS V14.00,2013-01-22 21:13:00,
2013-01-22 15:18:00,-0.4,-7.5,30.42,SW,231,3.0,8.0,71,0.00,,---,0.00,VWS V14.00,2013-01-22 21:18:00,
2013-01-22 15:23:00,-0.3,-7.4,30.42,SW,235,7.0,10.0,71,0.00,,---,0.00,VWS V14.00,2013-01-22 21:23:00,
2013-01-22 15:28:00,-0.2,-7.3,30.42,WSW,249,6.0,10.0,71,0.00,,---,0.00,VWS V14.00,2013-01-22 21:28:00,
2013-01-22 15:30:00,-0.2,-7.3,30.42,WSW,253,5.0,10.0,71,0.00,,---,0.00,VWS V14.00,2013-01-22 21:30:00,
2013-01-22 15:31:00,-0.1,-7.2,30.42,WSW,245,5.0,11.0,71,0.00,,---,0.00,VWS V14.00,2013-01-22 21:31:00,
2013-01-22 15:36:00,-0.1,-7.2,30.42,West,269,7.0,11.0,71,0.00,,---,0.00,VWS V14.00,2013-01-22 21:36:00,
2013-01-22 15:41:00,0.1,-7.1,30.42,WSW,246,2.0,11.0,71,0.00,,---,0.00,VWS V14.00,2013-01-22 21:41:00,
2013-01-22 15:46:00,0.1,-7.2,30.42,WSW,238,1.0,11.0,71,0.00,,---,0.00,VWS V14.00,2013-01-22 21:46:00,
2013-01-22 15:51:00,0.1,-6.8,30.42,WSW,250,4.0,11.0,72,0.00,,---,0.00,VWS V14.00,2013-01-22 21:51:00,
2013-01-22 15:56:00,0.1,-6.8,30.42,WSW,244,1.0,11.0,72,0.00,,---,0.00,VWS V14.00,2013-01-22 21:56:00,
2013-01-22 16:00:00,0.2,-6.7,30.42,WSW,238,6.0,11.0,72,0.00,,---,0.00,VWS V14.00,2013-01-22 22:00:00,
2013-01-22 16:01:00,0.2,-6.7,30.41,WSW,257,2.0,6.0,72,0.00,,---,0.00,VWS V14.00,2013-01-22 22:01:00,
2013-01-22 16:06:00,0.2,-6.7,30.41,SW,230,6.0,6.0,72,0.00,,---,0.00,VWS V14.00,2013-01-22 22:06:00,
2013-01-22 16:12:00,0.3,-6.6,30.41,WSW,238,2.0,6.0,72,0.00,,---,0.00,VWS V14.00,2013-01-22 22:12:00,
2013-01-22 16:17:00,0.3,-6.6,30.41,WSW,244,4.0,6.0,72,0.00,,---,0.00,VWS V14.00,2013-01-22 22:17:00,
2013-01-22 16:22:00,0.3,-6.6,30.40,SW,236,1.0,6.0,72,0.00,,---,0.00,VWS V14.00,2013-01-22 22:22:00,
2013-01-22 16:27:00,0.4,-6.2,30.40,SW,236,0.0,6.0,73,0.00,,---,0.00,VWS V14.00,2013-01-22 22:27:00,
2013-01-22 16:30:00,0.4,-6.2,30.40,SW,236,1.0,6.0,73,0.00,,---,0.00,VWS V14.00,2013-01-22 22:30:00,
2013-01-22 16:32:00,0.5,-6.1,30.40,WSW,248,4.0,6.0,73,0.00,,---,0.00,VWS V14.00,2013-01-22 22:32:00,
2013-01-22 16:37:00,0.5,-6.4,30.41,WSW,250,1.0,7.0,72,0.00,,---,0.00,VWS V14.00,2013-01-22 22:37:00,
2013-01-22 16:42:00,0.6,-6.3,30.40,WSW,239,0.0,7.0,72,0.00,,---,0.00,VWS V14.00,2013-01-22 22:42:00,
2013-01-22 16:47:00,0.6,-6.3,30.41,WSW,251,0.0,7.0,72,0.00,,---,0.00,VWS V14.00,2013-01-22 22:47:00,
2013-01-22 16:52:00,0.6,-6.3,30.41,WSW,251,0.0,7.0,72,0.00,,---,0.00,VWS V14.00,2013-01-22 22:52:00,
2013-01-22 16:57:00,0.6,-6.3,30.40,WSW,251,0.0,7.0,72,0.00,,---,0.00,VWS V14.00,2013-01-22 22:57:00,
2013-01-22 17:00:00,0.6,-6.3,30.40,WSW,251,0.0,7.0,72,0.00,,---,0.00,VWS V14.00,2013-01-22 23:00:00,
2013-01-22 17:02:00,0.6,-6.3,30.41,WSW,251,0.0,2.0,72,0.00,,---,0.00,VWS V14.00,2013-01-22 23:02:00,
2013-01-22 17:07:00,0.6,-6.3,30.41,WSW,253,0.0,2.0,72,0.00,,---,0.00,VWS V14.00,2013-01-22 23:07:00,
2013-01-22 17:12:00,0.6,-6.3,30.41,WSW,253,0.0,2.0,72,0.00,,---,0.00,VWS V14.00,2013-01-22 23:12:00,
2013-01-22 17:17:00,0.6,-6.0,30.41,WSW,258,0.0,3.0,73,0.00,,---,0.00,VWS V14.00,2013-01-22 23:17:00,
2013-01-22 17:22:00,0.6,-6.0,30.40,WSW,248,0.0,3.0,73,0.00,,---,0.00,VWS V14.00,2013-01-22 23:22:00,
2013-01-22 17:27:00,0.6,-6.0,30.40,WSW,248,0.0,3.0,73,0.00,,---,0.00,VWS V14.00,2013-01-22 23:27:00,
2013-01-22 17:30:00,0.6,-6.0,30.40,WSW,248,0.0,3.0,73,0.00,,---,0.00,VWS V14.00,2013-01-22 23:30:00,
2013-01-22 17:32:00,0.6,-6.0,30.40,WSW,248,0.0,0.0,73,0.00,,---,0.00,VWS V14.00,2013-01-22 23:32:00,
2013-01-22 17:37:00,0.6,-6.0,30.40,WSW,248,0.0,2.0,73,0.00,,---,0.00,VWS V14.00,2013-01-22 23:37:00,
2013-01-22 17:42:00,0.6,-6.0,30.40,WSW,248,0.0,3.0,73,0.00,,---,0.00,VWS V14.00,2013-01-22 23:42:00,
2013-01-22 17:47:00,0.7,-5.9,30.39,WSW,247,0.0,3.0,73,0.00,,---,0.00,VWS V14.00,2013-01-22 23:47:00,
2013-01-22 17:52:00,0.8,-5.5,30.39,WSW,247,0.0,3.0,74,0.00,,---,0.00,VWS V14.00,2013-01-22 23:52:00,
2013-01-22 17:57:00,0.8,-5.8,30.39,WSW,247,0.0,0.0,73,0.00,,---,0.00,VWS V14.00,2013-01-22 23:57:00,
2013-01-22 18:00:00,0.8,-5.8,30.39,WSW,247,0.0,3.0,73,0.00,,---,0.00,VWS V14.00,2013-01-23 00:00:00,
2013-01-22 18:02:00,0.8,-5.8,30.39,WSW,247,0.0,0.0,73,0.00,,---,0.00,VWS V14.00,2013-01-23 00:02:00,
2013-01-22 18:07:00,0.9,-5.4,30.39,WSW,247,1.0,1.0,74,0.00,,---,0.00,VWS V14.00,2013-01-23 00:07:00,
2013-01-22 18:12:00,0.9,-5.4,30.39,WSW,247,0.0,1.0,74,0.00,,---,0.00,VWS V14.00,2013-01-23 00:12:00,
2013-01-22 18:17:00,0.9,-5.4,30.39,WSW,245,1.0,2.0,74,0.00,,---,0.00,VWS V14.00,2013-01-23 00:17:00,
2013-01-22 18:22:00,0.9,-5.4,30.39,WSW,245,0.0,5.0,74,0.00,,---,0.00,VWS V14.00,2013-01-23 00:22:00,
2013-01-22 18:27:00,1.0,-5.1,30.39,WSW,245,0.0,0.0,75,0.00,,---,0.00,VWS V14.00,2013-01-23 00:27:00,
2013-01-22 18:30:00,1.1,-5.2,30.39,WSW,245,0.0,5.0,74,0.00,,---,0.00,VWS V14.00,2013-01-23 00:30:00,
2013-01-22 18:32:00,1.1,-5.2,30.39,SW,220,0.0,4.0,74,0.00,,---,0.00,VWS V14.00,2013-01-23 00:32:00,
2013-01-22 18:37:00,1.1,-5.0,30.38,SW,221,2.0,4.0,75,0.00,,---,0.00,VWS V14.00,2013-01-23 00:37:00,
2013-01-22 18:42:00,1.2,-4.9,30.39,SW,224,3.0,5.0,75,0.00,,---,0.00,VWS V14.00,2013-01-23 00:42:00,
2013-01-22 18:47:00,1.3,-4.8,30.38,SW,225,0.0,5.0,75,0.00,,---,0.00,VWS V14.00,2013-01-23 00:47:00,
2013-01-22 18:52:00,1.3,-4.8,30.38,SW,224,2.0,5.0,75,0.00,,---,0.00,VWS V14.00,2013-01-23 00:52:00,
2013-01-22 18:57:00,1.4,-4.7,30.38,SW,220,1.0,3.0,75,0.00,,---,0.00,VWS V14.00,2013-01-23 00:57:00,
2013-01-22 19:00:00,1.4,-4.7,30.39,SW,220,3.0,6.0,75,0.00,,---,0.00,VWS V14.00,2013-01-23 01:00:00,
2013-01-22 19:02:00,1.5,-4.6,30.39,SW,217,3.0,4.0,75,0.00,,---,0.00,VWS V14.00,2013-01-23 01:02:00,
2013-01-22 19:07:00,1.5,-4.6,30.38,SW,236,1.0,5.0,75,0.00,,---,0.00,VWS V14.00,2013-01-23 01:07:00,
2013-01-22 19:12:00,1.7,-4.4,30.39,SW,235,4.0,6.0,75,0.00,,---,0.00,VWS V14.00,2013-01-23 01:12:00,
2013-01-22 19:17:00,1.7,-4.4,30.38,WSW,238,1.0,7.0,75,0.00,,---,0.00,VWS V14.00,2013-01-23 01:17:00,
2013-01-22 19:22:00,1.8,-4.3,30.38,SW,229,4.0,7.0,75,0.00,,---,0.00,VWS V14.00,2013-01-23 01:22:00,
2013-01-22 19:27:00,1.9,-4.2,30.38,SW,220,3.0,7.0,75,0.00,,---,0.00,VWS V14.00,2013-01-23 01:27:00,
2013-01-22 19:30:00,1.9,-4.2,30.38,SW,220,4.0,7.0,75,0.00,,---,0.00,VWS V14.00,2013-01-23 01:30:00,
2013-01-22 19:32:00,2.0,-4.1,30.37,SW,219,6.0,10.0,75,0.00,,---,0.00,VWS V14.00,2013-01-23 01:32:00,
2013-01-22 19:37:00,2.0,-4.1,30.37,SW,232,1.0,10.0,75,0.00,,---,0.00,VWS V14.00,2013-01-23 01:37:00,
2013-01-22 19:42:00,2.1,-3.7,30.37,SW,222,6.0,10.0,76,0.00,,---,0.00,VWS V14.00,2013-01-23 01:42:00,
2013-01-22 19:47:00,2.2,-3.6,30.37,SW,229,2.0,10.0,76,0.00,,---,0.00,VWS V14.00,2013-01-23 01:47:00,
2013-01-22 19:52:00,2.3,-3.5,30.36,SW,219,5.0,10.0,76,0.00,,---,0.00,VWS V14.00,2013-01-23 01:52:00,
2013-01-22 19:57:00,2.4,-3.4,30.36,SW,232,0.0,2.0,76,0.00,,---,0.00,VWS V14.00,2013-01-23 01:57:00,
2013-01-22 20:00:00,2.4,-3.4,30.36,SW,232,2.0,10.0,76,0.00,,---,0.00,VWS V14.00,2013-01-23 02:00:00,
2013-01-22 20:02:00,2.4,-3.4,30.36,SW,226,0.0,6.0,76,0.00,,---,0.00,VWS V14.00,2013-01-23 02:02:00,
2013-01-22 20:07:00,2.5,-3.3,30.36,SW,226,0.0,6.0,76,0.00,,---,0.00,VWS V14.00,2013-01-23 02:07:00,
2013-01-22 20:12:00,2.6,-3.2,30.36,SW,226,0.0,6.0,76,0.00,,---,0.00,VWS V14.00,2013-01-23 02:12:00,
2013-01-22 20:17:00,2.7,-3.1,30.36,SW,226,3.0,6.0,76,0.00,,---,0.00,VWS V14.00,2013-01-23 02:17:00,
2013-01-22 20:22:00,2.7,-3.1,30.36,SW,228,0.0,6.0,76,0.00,,---,0.00,VWS V14.00,2013-01-23 02:22:00,
2013-01-22 20:27:00,2.8,-3.0,30.36,SW,227,3.0,3.0,76,0.00,,---,0.00,VWS V14.00,2013-01-23 02:27:00,
2013-01-22 20:30:00,2.8,-3.0,30.36,SW,227,3.0,6.0,76,0.00,,---,0.00,VWS V14.00,2013-01-23 02:30:00,
2013-01-22 20:33:00,2.9,-2.9,30.36,SW,226,0.0,4.0,76,0.00,,---,0.00,VWS V14.00,2013-01-23 02:33:00,
2013-01-22 20:37:00,2.9,-2.9,30.36,SW,224,0.0,4.0,76,0.00,,---,0.00,VWS V14.00,2013-01-23 02:37:00,
2013-01-22 20:42:00,3.0,-2.8,30.36,SW,226,3.0,5.0,76,0.00,,---,0.00,VWS V14.00,2013-01-23 02:42:00,
2013-01-22 20:47:00,3.1,-3.0,30.36,SW,221,4.0,5.0,75,0.00,,---,0.00,VWS V14.00,2013-01-23 02:47:00,
2013-01-22 20:53:00,3.1,-3.0,30.35,SW,219,2.0,5.0,75,0.00,,---,0.00,VWS V14.00,2013-01-23 02:53:00,
2013-01-22 20:58:00,3.2,-2.9,30.35,SW,219,0.0,0.0,75,0.00,,---,0.00,VWS V14.00,2013-01-23 02:58:00,
2013-01-22 21:00:00,3.2,-2.9,30.35,SW,219,0.0,5.0,75,0.00,,---,0.00,VWS V14.00,2013-01-23 03:00:00,
2013-01-22 21:03:00,3.3,-2.8,30.35,SW,222,0.0,0.0,75,0.00,,---,0.00,VWS V14.00,2013-01-23 03:03:00,
2013-01-22 21:08:00,3.3,-2.8,30.35,SW,223,0.0,3.0,75,0.00,,---,0.00,VWS V14.00,2013-01-23 03:08:00,
2013-01-22 21:13:00,3.3,-2.8,30.35,SW,223,0.0,3.0,75,0.00,,---,0.00,VWS V14.00,2013-01-23 03:13:00,
2013-01-22 21:18:00,3.4,-2.7,30.35,SW,223,0.0,3.0,75,0.00,,---,0.00,VWS V14.00,2013-01-23 03:18:00,
2013-01-22 21:23:00,3.4,-2.7,30.35,SW,223,0.0,3.0,75,0.00,,---,0.00,VWS V14.00,2013-01-23 03:23:00,
2013-01-22 21:28:00,3.5,-2.6,30.35,SW,223,0.0,0.0,75,0.00,,---,0.00,VWS V14.00,2013-01-23 03:28:00,
2013-01-22 21:30:00,3.5,-2.6,30.35,SW,223,0.0,3.0,75,0.00,,---,0.00,VWS V14.00,2013-01-23 03:30:00,
2013-01-22 21:32:00,3.5,-2.6,30.35,SW,223,0.0,3.0,75,0.00,,---,0.00,VWS V14.00,2013-01-23 03:32:00,
2013-01-22 21:37:00,3.6,-2.5,30.34,SW,223,0.0,3.0,75,0.00,,---,0.00,VWS V14.00,2013-01-23 03:37:00,
2013-01-22 21:42:00,3.6,-2.5,30.34,SW,223,0.0,3.0,75,0.00,,---,0.00,VWS V14.00,2013-01-23 03:42:00,
2013-01-22 21:47:00,3.6,-2.5,30.34,SW,223,0.0,3.0,75,0.00,,---,0.00,VWS V14.00,2013-01-23 03:47:00,
2013-01-22 21:53:00,3.7,-2.4,30.34,SW,223,0.0,3.0,75,0.00,,---,0.00,VWS V14.00,2013-01-23 03:53:00,
2013-01-22 21:58:00,3.7,-2.4,30.34,SW,223,0.0,0.0,75,0.00,,---,0.00,VWS V14.00,2013-01-23 03:58:00,
2013-01-22 22:00:00,3.8,-2.3,30.34,SW,223,0.0,3.0,75,0.00,,---,0.00,VWS V14.00,2013-01-23 04:00:00,
2013-01-22 22:03:00,3.8,-2.3,30.34,SW,223,0.0,0.0,75,0.00,,---,0.00,VWS V14.00,2013-01-23 04:03:00,
2013-01-22 22:08:00,3.8,-2.3,30.33,SW,223,2.0,2.0,75,0.00,,---,0.00,VWS V14.00,2013-01-23 04:08:00,
2013-01-22 22:13:00,3.8,-2.3,30.33,SW,223,1.0,3.0,75,0.00,,---,0.00,VWS V14.00,2013-01-23 04:13:00,
2013-01-22 22:17:00,3.9,-2.2,30.33,SW,221,0.0,4.0,75,0.00,,---,0.00,VWS V14.00,2013-01-23 04:17:00,
2013-01-22 22:23:00,4.0,-2.2,30.33,SW,220,0.0,4.0,75,0.00,,---,0.00,VWS V14.00,2013-01-23 04:23:00,
2013-01-22 22:27:00,4.1,-1.8,30.33,SW,219,0.0,0.0,76,0.00,,---,0.00,VWS V14.00,2013-01-23 04:27:00,
2013-01-22 22:30:00,4.1,-1.8,30.33,SW,219,0.0,4.0,76,0.00,,---,0.00,VWS V14.00,2013-01-23 04:30:00,
2013-01-22 22:32:00,4.1,-1.8,30.32,SW,219,1.0,3.0,76,0.00,,---,0.00,VWS V14.00,2013-01-23 04:32:00,
2013-01-22 22:38:00,4.2,-1.7,30.33,SW,219,0.0,3.0,76,0.00,,---,0.00,VWS V14.00,2013-01-23 04:38:00,
2013-01-22 22:42:00,4.3,-1.6,30.33,SW,219,0.0,3.0,76,0.00,,---,0.00,VWS V14.00,2013-01-23 04:42:00,
2013-01-22 22:47:00,4.4,-1.5,30.33,SW,219,0.0,3.0,76,0.00,,---,0.00,VWS V14.00,2013-01-23 04:47:00,
2013-01-22 22:52:00,4.5,-1.4,30.33,SW,219,0.0,3.0,76,0.00,,---,0.00,VWS V14.00,2013-01-23 04:52:00,
2013-01-22 22:57:00,4.5,-1.4,30.33,SW,219,0.0,0.0,76,0.00,,---,0.00,VWS V14.00,2013-01-23 04:57:00,
2013-01-22 23:00:00,4.5,-1.4,30.33,SW,219,0.0,3.0,76,0.00,,---,0.00,VWS V14.00,2013-01-23 05:00:00,
2013-01-22 23:02:00,4.6,-1.3,30.33,SW,219,0.0,5.0,76,0.00,,---,0.00,VWS V14.00,2013-01-23 05:02:00,
2013-01-22 23:03:00,4.6,-1.3,30.33,SW,219,0.0,5.0,76,0.00,,---,0.00,VWS V14.00,2013-01-23 05:03:00,
2013-01-22 23:08:00,4.7,-1.5,30.33,SW,219,2.0,5.0,75,0.00,,---,0.00,VWS V14.00,2013-01-23 05:08:00,
2013-01-22 23:13:00,4.8,-1.4,30.33,SW,219,0.0,5.0,75,0.00,,---,0.00,VWS V14.00,2013-01-23 05:13:00,
2013-01-22 23:18:00,4.8,-1.4,30.33,SW,219,0.0,5.0,75,0.00,,---,0.00,VWS V14.00,2013-01-23 05:18:00,
2013-01-22 23:23:00,4.9,-1.3,30.33,SW,218,0.0,5.0,75,0.00,,---,0.00,VWS V14.00,2013-01-23 05:23:00,
2013-01-22 23:28:00,5.0,-0.9,30.32,SW,218,0.0,0.0,76,0.00,,---,0.00,VWS V14.00,2013-01-23 05:28:00,
2013-01-22 23:30:00,4.9,-1.0,30.33,SW,218,0.0,5.0,76,0.00,,---,0.00,VWS V14.00,2013-01-23 05:30:00,
2013-01-22 23:33:00,5.0,1.5,30.32,SW,217,0.0,1.0,85,0.00,,---,0.00,VWS V14.00,2013-01-23 05:33:00,
2013-01-22 23:38:00,5.1,-0.8,30.32,SW,217,0.0,1.0,76,0.00,,---,0.00,VWS V14.00,2013-01-23 05:38:00,
2013-01-22 23:43:00,5.2,-0.7,30.32,SW,218,2.0,3.0,76,0.00,,---,0.00,VWS V14.00,2013-01-23 05:43:00,
2013-01-22 23:48:00,5.2,-0.7,30.32,SW,218,2.0,4.0,76,0.00,,---,0.00,VWS V14.00,2013-01-23 05:48:00,
2013-01-22 23:53:00,5.3,-0.6,30.32,SW,218,0.0,4.0,76,0.00,,---,0.00,VWS V14.00,2013-01-23 05:53:00,
2013-01-22 23:58:00,5.4,-0.5,30.32,SW,218,0.0,0.0,76,0.00,,---,0.00,VWS V14.00,2013-01-23 05:58:00,